Time;durP1;ratioP1;P1;durP2;ratioP2;P2;SDS_P1;SDS_P2;PMS_P1;PMS_P2;Temp;Humidity;BMP_temperature;BMP_pressure;BME280_temperature;BME280_humidity;BME280_pressure;Samples;Min_cycle;Max_cycle;Signal;HPM_P1;HPM_P2
2021/12/22 00:01:53;;;;;;;20.43;15.13;;;;;;;-3.08;87.85;102121.28;4973332;28;20240;-80
2021/12/22 00:04:22;;;;;;;16.80;15.10;;;;;;;-3.13;88.12;102117.59;4975304;28;20223;-79
2021/12/22 00:06:50;;;;;;;15.30;13.67;;;;;;;-3.09;88.10;102114.44;4975245;28;20212;-78
2021/12/22 00:09:17;;;;;;;20.37;15.50;;;;;;;-3.15;88.06;102118.25;4974995;28;20225;-80
2021/12/22 00:11:44;;;;;;;21.13;16.00;;;;;;;-3.18;88.74;102111.28;4974961;28;20293;-80
2021/12/22 00:14:10;;;;;;;19.83;15.90;;;;;;;-3.20;88.39;102105.19;4975596;28;20218;-78
2021/12/22 00:16:37;;;;;;;18.90;15.00;;;;;;;-3.11;88.50;102103.25;4975026;28;20569;-79
2021/12/22 00:19:04;;;;;;;18.10;14.40;;;;;;;-3.10;88.36;102104.13;4975029;28;20204;-79
2021/12/22 00:21:30;;;;;;;16.40;14.50;;;;;;;-3.17;87.86;102107.97;4974918;28;20287;-78
2021/12/22 00:23:58;;;;;;;20.40;16.07;;;;;;;-3.38;87.93;102115.13;4974950;28;20258;-79
2021/12/22 00:26:25;;;;;;;19.57;15.03;;;;;;;-3.30;87.90;102106.28;4974778;28;20212;-80
2021/12/22 00:28:51;;;;;;;17.60;14.20;;;;;;;-3.26;87.63;102115.91;4974845;28;20235;-80
2021/12/22 00:31:20;;;;;;;15.97;14.33;;;;;;;-3.23;87.28;102122.88;4974972;28;20227;-80
2021/12/22 00:33:48;;;;;;;14.40;12.07;;;;;;;-3.14;86.84;102130.25;4975073;28;20215;-80
2021/12/22 00:36:16;;;;;;;16.47;13.37;;;;;;;-3.16;86.87;102140.34;4974844;28;20206;-80
2021/12/22 00:38:43;;;;;;;15.13;13.00;;;;;;;-3.18;87.22;102136.81;4974778;28;20282;-79
2021/12/22 00:41:10;;;;;;;13.70;12.30;;;;;;;-3.21;87.07;102141.72;4975104;28;20239;-79
2021/12/22 00:43:37;;;;;;;15.77;13.30;;;;;;;-3.37;87.63;102129.63;4975360;28;20215;-80
2021/12/22 00:46:04;;;;;;;14.27;12.40;;;;;;;-3.37;87.38;102113.44;4975201;28;20214;-80
2021/12/22 00:48:31;;;;;;;15.03;13.53;;;;;;;-3.43;87.56;102121.59;4978562;28;20243;-79
2021/12/22 00:50:57;;;;;;;16.57;13.73;;;;;;;-3.48;87.39;102112.75;4977712;28;20285;-77
2021/12/22 00:53:24;;;;;;;15.70;12.50;;;;;;;-3.51;87.38;102115.09;4974708;28;20214;-80
2021/12/22 00:55:51;;;;;;;14.80;11.90;;;;;;;-3.45;87.04;102125.69;4974262;28;20217;-79
2021/12/22 00:58:20;;;;;;;14.37;12.30;;;;;;;-3.45;86.48;102139.38;4974858;28;20242;-79
2021/12/22 01:00:48;;;;;;;14.97;13.47;;;;;;;-3.41;85.96;102151.56;4974990;28;20222;-79
2021/12/22 01:03:16;;;;;;;15.03;13.50;;;;;;;-3.56;85.00;102170.09;4974347;28;20628;-80
2021/12/22 01:05:42;;;;;;;38.13;14.73;;;;;;;-3.85;86.42;102169.00;4974245;28;20697;-80
2021/12/22 01:08:09;;;;;;;74.53;14.80;;;;;;;-4.05;86.64;102142.16;4974660;28;20235;-78
2021/12/22 01:10:35;;;;;;;19.57;13.83;;;;;;;-3.93;87.67;102125.13;4976912;28;20731;-79
2021/12/22 01:13:05;;;;;;;15.93;13.47;;;;;;;-3.86;87.59;102113.69;4977467;28;20216;-80
2021/12/22 01:15:34;;;;;;;15.37;13.83;;;;;;;-3.73;87.68;102117.91;4978484;28;20272;-78
2021/12/22 01:18:05;;;;;;;17.07;14.73;;;;;;;-3.80;87.31;102124.28;4977833;28;20210;-80
2021/12/22 01:20:36;;;;;;;18.37;13.00;;;;;;;-3.85;86.58;102138.38;4977488;28;20312;-78
2021/12/22 01:23:04;;;;;;;21.10;13.33;;;;;;;-3.90;86.33;102148.31;4977636;28;20253;-79
2021/12/22 01:25:35;;;;;;;14.60;13.10;;;;;;;-3.84;86.50;102140.19;4978189;28;20241;-79
2021/12/22 01:28:02;;;;;;;15.37;12.73;;;;;;;-3.86;86.41;102139.19;4977834;28;20313;-81
2021/12/22 01:30:31;;;;;;;16.50;13.27;;;;;;;-3.90;86.43;102144.88;4977580;28;20210;-80
2021/12/22 01:33:01;;;;;;;17.27;13.27;;;;;;;-3.89;86.04;102152.59;4977332;28;20234;-80
2021/12/22 01:35:30;;;;;;;15.17;13.53;;;;;;;-3.93;86.25;102150.63;4977775;28;20277;-80
2021/12/22 01:37:58;;;;;;;15.30;12.40;;;;;;;-3.88;86.19;102151.84;4977728;28;20205;-79
2021/12/22 01:40:25;;;;;;;17.27;13.50;;;;;;;-3.87;86.15;102152.72;4977806;28;20207;-79
2021/12/22 01:42:55;;;;;;;16.23;13.23;;;;;;;-3.84;86.20;102156.34;4977271;28;20249;-79
2021/12/22 01:45:47;;;;;;;26.23;13.60;;;;;;;-3.92;86.13;102160.06;4977415;28;20269;-80
2021/12/22 01:51:05;;;;;;;13.07;11.47;;;;;;;-4.20;85.47;102180.25;4978037;28;20280;-80
2021/12/22 01:53:39;;;;;;;25.27;13.23;;;;;;;-4.31;85.86;102176.06;4977104;28;20621;-79
2021/12/22 01:56:16;;;;;;;15.27;11.83;;;;;;;-4.22;85.86;102171.63;4977055;28;20235;-80
2021/12/22 01:58:45;;;;;;;15.30;11.87;;;;;;;-4.20;86.03;102170.94;4977805;28;20202;-79
2021/12/22 02:01:14;;;;;;;13.63;11.80;;;;;;;-4.07;86.28;102151.38;4977103;28;20608;-80
2021/12/22 02:03:43;;;;;;;15.17;12.17;;;;;;;-4.07;86.09;102151.38;4976937;28;20649;-80
2021/12/22 02:06:11;;;;;;;16.03;11.63;;;;;;;-4.07;86.87;102146.25;4977364;28;20565;-80
2021/12/22 02:08:38;;;;;;;14.53;12.40;;;;;;;-4.08;86.60;102147.94;4976808;28;20635;-80
2021/12/22 02:11:06;;;;;;;13.20;11.73;;;;;;;-4.03;85.83;102156.78;4978210;28;20234;-80
2021/12/22 02:13:36;;;;;;;13.70;11.80;;;;;;;-4.03;85.33;102164.41;4977148;28;20215;-80
2021/12/22 02:16:07;;;;;;;12.50;11.20;;;;;;;-4.03;85.20;102169.53;4977706;28;20211;-80
2021/12/22 02:18:34;;;;;;;11.43;10.23;;;;;;;-4.10;84.82;102192.84;4977663;28;20195;-80
2021/12/22 02:21:02;;;;;;;11.57;10.47;;;;;;;-4.22;85.20;102215.84;4976206;28;20231;-79
2021/12/22 02:23:29;;;;;;;11.30;10.20;;;;;;;-4.21;84.59;102214.16;4976557;28;20621;-80
2021/12/22 02:26:00;;;;;;;12.40;11.10;;;;;;;-4.25;84.29;102228.34;4977330;28;20207;-80
2021/12/22 02:28:31;;;;;;;10.77;9.67;;;;;;;-4.23;83.73;102237.00;4977456;28;20214;-80
2021/12/22 02:30:57;;;;;;;10.60;9.60;;;;;;;-4.24;83.93;102240.34;4977612;28;20242;-79
2021/12/22 02:33:32;;;;;;;10.37;9.37;;;;;;;-4.16;83.38;102255.25;4976116;28;20649;-80
2021/12/22 02:36:10;;;;;;;8.77;7.87;;;;;;;-4.22;83.13;102258.31;4977937;28;20221;-80
2021/12/22 02:38:43;;;;;;;9.37;8.47;;;;;;;-4.41;83.50;102259.53;4977020;28;20235;-80
2021/12/22 02:41:12;;;;;;;8.60;7.70;;;;;;;-4.48;84.28;102236.94;4977249;28;20239;-80
2021/12/22 02:43:45;;;;;;;8.53;7.20;;;;;;;-4.54;83.84;102236.50;4976462;28;20649;-80
2021/12/22 02:46:12;;;;;;;8.77;7.77;;;;;;;-4.57;82.96;102243.94;4976881;28;20305;-80
2021/12/22 02:48:39;;;;;;;9.43;8.30;;;;;;;-4.53;83.64;102238.28;4977101;28;20341;-80
2021/12/22 02:51:05;;;;;;;8.77;7.83;;;;;;;-4.52;83.96;102232.41;4977072;28;20285;-80
2021/12/22 02:53:40;;;;;;;9.03;7.70;;;;;;;-4.56;83.70;102232.94;4976953;28;20221;-80
2021/12/22 02:56:24;;;;;;;9.63;7.60;;;;;;;-4.49;84.34;102226.66;4976789;28;20687;-80
2021/12/22 02:58:59;;;;;;;9.07;7.73;;;;;;;-4.48;84.77;102221.66;4976457;28;20266;-80
2021/12/22 03:01:52;;;;;;;8.47;7.63;;;;;;;-4.46;84.54;102209.00;4977231;28;20253;-78
2021/12/22 03:04:19;;;;;;;9.03;7.43;;;;;;;-4.50;83.90;102213.03;4976762;28;20246;-80
2021/12/22 03:06:53;;;;;;;9.20;6.97;;;;;;;-4.54;84.08;102225.41;4976644;28;20211;-80
2021/12/22 03:09:21;;;;;;;9.97;6.60;;;;;;;-4.59;84.63;102200.50;4976854;28;20234;-80
2021/12/22 03:11:50;;;;;;;8.73;7.43;;;;;;;-4.56;85.42;102194.72;4977134;28;20943;-79
2021/12/22 03:14:18;;;;;;;7.53;6.27;;;;;;;-4.51;85.23;102183.22;4983314;28;20255;-78
2021/12/22 03:16:45;;;;;;;7.90;7.10;;;;;;;-4.47;85.41;102179.22;4983514;28;20211;-78
2021/12/22 03:19:14;;;;;;;9.33;6.97;;;;;;;-4.41;85.67;102177.97;4983226;28;20210;-79
2021/12/22 03:21:41;;;;;;;8.83;7.27;;;;;;;-4.40;85.50;102171.19;4981667;28;20230;-79
2021/12/22 03:24:09;;;;;;;8.10;7.20;;;;;;;-4.36;85.16;102185.97;4976735;28;20207;-79
2021/12/22 03:26:41;;;;;;;8.40;7.50;;;;;;;-4.30;85.30;102177.81;4975859;28;20217;-80
2021/12/22 03:29:09;;;;;;;10.27;7.53;;;;;;;-4.24;85.00;102181.69;4975579;28;20230;-80
2021/12/22 03:31:36;;;;;;;8.83;7.30;;;;;;;-4.40;84.61;102184.84;4975757;28;20222;-78
2021/12/22 03:34:02;;;;;;;9.27;8.27;;;;;;;-4.46;84.61;102183.53;4975263;28;20694;-79
2021/12/22 03:36:29;;;;;;;8.63;7.67;;;;;;;-4.53;84.63;102177.13;4975705;28;20242;-79
2021/12/22 03:38:55;;;;;;;7.73;6.60;;;;;;;-4.47;84.85;102181.75;4976086;28;20207;-80
2021/12/22 03:41:21;;;;;;;8.70;7.80;;;;;;;-4.39;85.32;102173.88;4975663;28;20238;-80
2021/12/22 03:43:48;;;;;;;8.67;7.60;;;;;;;-4.46;85.13;102171.69;4975490;28;20275;-80
2021/12/22 03:46:16;;;;;;;8.47;7.40;;;;;;;-4.45;84.66;102170.88;4975643;28;20210;-80
2021/12/22 03:48:43;;;;;;;8.73;7.70;;;;;;;-4.50;83.77;102185.00;4975140;28;20238;-79
2021/12/22 03:51:09;;;;;;;8.20;6.80;;;;;;;-4.57;83.70;102204.84;4975814;28;20754;-80
2021/12/22 03:53:36;;;;;;;9.63;7.87;;;;;;;-4.57;83.35;102203.16;4975854;28;20628;-80
2021/12/22 03:56:03;;;;;;;8.30;7.40;;;;;;;-4.60;83.57;102205.47;4975747;28;20575;-79
2021/12/22 03:58:30;;;;;;;8.03;6.90;;;;;;;-4.57;84.33;102189.53;4975313;28;20232;-80
2021/12/22 04:00:57;;;;;;;7.23;6.37;;;;;;;-4.60;83.78;102198.75;4975587;28;20228;-80
2021/12/22 04:03:28;;;;;;;6.53;5.93;;;;;;;-4.63;83.88;102205.28;4975496;28;20699;-80
2021/12/22 04:05:55;;;;;;;8.23;6.47;;;;;;;-4.67;84.72;102195.66;4975872;28;20596;-80
2021/12/22 04:08:21;;;;;;;8.03;6.73;;;;;;;-4.61;84.54;102188.44;4975792;28;20246;-79
2021/12/22 04:10:49;;;;;;;11.07;7.10;;;;;;;-4.62;84.47;102177.38;4976058;28;20236;-80
2021/12/22 04:13:17;;;;;;;7.83;7.13;;;;;;;-4.60;84.49;102168.16;4976229;28;20233;-80
2021/12/22 04:15:44;;;;;;;7.73;6.93;;;;;;;-4.66;84.89;102166.84;4979122;28;20215;-79
2021/12/22 04:18:11;;;;;;;7.87;7.10;;;;;;;-4.68;84.12;102169.25;4981729;28;20306;-79
2021/12/22 04:20:39;;;;;;;8.57;7.27;;;;;;;-4.61;83.76;102179.13;4981374;28;20232;-78
2021/12/22 04:23:07;;;;;;;8.67;7.37;;;;;;;-4.57;84.26;102176.81;4977215;28;20215;-80
2021/12/22 04:25:35;;;;;;;7.50;6.73;;;;;;;-4.55;84.71;102163.38;4975446;28;20223;-80
2021/12/22 04:28:06;;;;;;;7.83;7.03;;;;;;;-4.56;84.78;102169.25;4975556;28;20252;-79
2021/12/22 04:30:34;;;;;;;8.07;6.63;;;;;;;-4.51;84.73;102165.38;4975232;28;20225;-78
2021/12/22 04:33:00;;;;;;;7.13;5.40;;;;;;;-4.46;84.86;102155.47;4975470;28;20277;-79
2021/12/22 04:35:27;;;;;;;6.83;5.67;;;;;;;-4.48;84.57;102162.13;4975674;28;20684;-80
2021/12/22 04:37:55;;;;;;;6.10;5.47;;;;;;;-4.51;84.47;102161.94;4975612;28;20278;-80
2021/12/22 04:40:22;;;;;;;6.53;5.47;;;;;;;-4.46;84.86;102156.41;4974840;28;20233;-80
2021/12/22 04:42:48;;;;;;;10.63;7.33;;;;;;;-4.42;85.71;102145.63;4975008;28;20239;-80
2021/12/22 04:45:16;;;;;;;7.10;6.30;;;;;;;-4.36;85.45;102141.72;4977480;28;20210;-80
2021/12/22 04:47:44;;;;;;;7.07;6.00;;;;;;;-4.31;85.16;102132.75;4979389;28;20622;-80
2021/12/22 04:50:16;;;;;;;10.20;7.33;;;;;;;-4.31;85.63;102125.97;4978913;28;20269;-79
2021/12/22 04:52:49;;;;;;;7.20;6.30;;;;;;;-4.31;85.62;102127.63;4978758;28;20234;-79
2021/12/22 04:55:17;;;;;;;6.97;6.27;;;;;;;-4.36;84.91;102136.63;4979645;28;20222;-80
2021/12/22 04:57:43;;;;;;;7.50;5.83;;;;;;;-4.49;84.85;102147.66;4978844;28;20207;-79
2021/12/22 05:00:12;;;;;;;8.60;5.97;;;;;;;-4.44;84.88;102149.75;4978612;28;20554;-80
2021/12/22 05:02:39;;;;;;;8.37;7.47;;;;;;;-4.37;84.86;102150.16;4978794;28;20293;-79
2021/12/22 05:05:07;;;;;;;10.13;7.87;;;;;;;-4.34;84.78;102148.72;4978396;28;20342;-80
2021/12/22 05:07:33;;;;;;;8.90;8.00;;;;;;;-4.31;84.82;102163.31;4978671;28;20217;-80
2021/12/22 05:09:59;;;;;;;9.67;7.23;;;;;;;-4.43;84.50;102166.78;4978916;28;20230;-79
2021/12/22 05:12:27;;;;;;;8.63;7.23;;;;;;;-4.44;84.22;102175.22;4978206;28;20234;-79
2021/12/22 05:14:53;;;;;;;9.00;7.77;;;;;;;-4.41;84.22;102174.53;4979091;28;20219;-80
2021/12/22 05:17:24;;;;;;;9.40;8.37;;;;;;;-4.42;84.89;102170.22;4978791;28;20204;-79
2021/12/22 05:19:51;;;;;;;8.80;7.67;;;;;;;-4.35;84.65;102179.19;4978225;28;20229;-80
2021/12/22 05:22:17;;;;;;;8.53;7.63;;;;;;;-4.36;84.16;102178.31;4978071;28;20238;-80
2021/12/22 05:24:44;;;;;;;8.53;7.70;;;;;;;-4.35;84.36;102180.06;4978442;28;20641;-80
2021/12/22 05:27:11;;;;;;;8.17;7.33;;;;;;;-4.50;84.22;102185.00;4979959;28;20266;-80
2021/12/22 05:29:39;;;;;;;9.87;7.80;;;;;;;-4.59;84.83;102177.56;4978542;28;20231;-80
2021/12/22 05:32:06;;;;;;;11.50;8.93;;;;;;;-4.59;85.70;102151.22;4977857;28;20235;-80
2021/12/22 05:34:33;;;;;;;9.10;8.17;;;;;;;-4.64;86.16;102140.72;4978211;28;20210;-80
2021/12/22 05:37:00;;;;;;;9.40;8.30;;;;;;;-4.59;86.17;102130.81;4977770;28;20220;-80
2021/12/22 05:39:27;;;;;;;9.67;8.67;;;;;;;-4.51;86.26;102131.38;4978478;28;20210;-80
2021/12/22 05:41:54;;;;;;;9.63;8.73;;;;;;;-4.50;85.71;102139.13;4977327;28;20309;-80
2021/12/22 05:44:20;;;;;;;7.30;6.57;;;;;;;-4.56;85.45;102143.75;4978342;28;20275;-80
2021/12/22 05:46:48;;;;;;;7.53;6.43;;;;;;;-4.63;85.32;102144.13;4978451;28;20203;-80
2021/12/22 05:49:14;;;;;;;8.10;7.00;;;;;;;-4.72;85.70;102152.00;4978149;28;20227;-79
2021/12/22 05:51:41;;;;;;;8.23;7.20;;;;;;;-4.76;85.56;102137.28;4977574;28;20238;-81
2021/12/22 05:54:07;;;;;;;6.80;5.97;;;;;;;-4.79;85.58;102142.16;4977695;28;20210;-79
2021/12/22 05:56:34;;;;;;;7.37;6.03;;;;;;;-4.73;85.94;102132.41;4978914;28;20206;-79
2021/12/22 05:59:01;;;;;;;7.53;6.03;;;;;;;-4.70;85.63;102127.50;4984585;28;20258;-80
2021/12/22 06:01:30;;;;;;;9.00;6.57;;;;;;;-4.66;85.85;102132.06;4985901;28;20264;-79
2021/12/22 06:03:59;;;;;;;8.57;6.77;;;;;;;-4.69;86.38;102118.22;4983581;28;20305;-79
2021/12/22 06:06:26;;;;;;;8.30;6.40;;;;;;;-4.68;86.66;102117.44;4986011;28;20608;-80
2021/12/22 06:08:52;;;;;;;7.60;6.80;;;;;;;-4.62;86.20;102115.31;4987626;28;20228;-79
2021/12/22 06:11:18;;;;;;;8.73;6.37;;;;;;;-4.64;86.33;102114.31;4986433;28;20226;-78
2021/12/22 06:13:45;;;;;;;11.03;7.07;;;;;;;-4.59;86.22;102113.88;4985524;28;20203;-79
2021/12/22 06:16:11;;;;;;;8.50;7.13;;;;;;;-4.59;86.18;102107.91;4987312;28;20202;-78
2021/12/22 06:18:43;;;;;;;7.93;7.13;;;;;;;-4.61;86.37;102099.25;4985870;28;20202;-78
2021/12/22 06:21:12;;;;;;;8.13;6.63;;;;;;;-4.58;86.83;102096.91;4985650;28;20231;-78
2021/12/22 06:23:39;;;;;;;8.77;6.27;;;;;;;-4.62;85.87;102102.56;4986308;28;20202;-77
2021/12/22 06:26:05;;;;;;;7.43;6.70;;;;;;;-4.57;86.16;102111.44;4984567;28;20246;-80
2021/12/22 06:28:32;;;;;;;8.23;5.47;;;;;;;-4.62;85.71;102122.97;4985374;28;20683;-81
2021/12/22 06:30:58;;;;;;;8.13;5.97;;;;;;;-4.62;85.46;102133.16;4987290;28;20277;-81
2021/12/22 06:33:24;;;;;;;8.37;6.27;;;;;;;-4.59;85.42;102134.25;4986304;28;20232;-81
2021/12/22 06:35:51;;;;;;;7.03;6.27;;;;;;;-4.56;84.87;102142.88;4987828;28;20197;-81
2021/12/22 06:38:19;;;;;;;6.97;6.03;;;;;;;-4.64;84.51;102156.00;4986451;28;20230;-81
2021/12/22 06:40:45;;;;;;;6.57;5.80;;;;;;;-4.69;84.70;102148.81;4986901;28;20256;-81
2021/12/22 06:43:12;;;;;;;6.77;6.07;;;;;;;-4.68;85.05;102148.88;4988910;28;20254;-80
2021/12/22 06:45:38;;;;;;;8.07;6.00;;;;;;;-4.67;84.72;102145.56;4988253;28;20743;-81
2021/12/22 06:48:05;;;;;;;7.47;5.30;;;;;;;-4.67;84.99;102149.78;4988554;28;20204;-81
2021/12/22 06:50:31;;;;;;;6.13;5.50;;;;;;;-4.64;85.27;102150.00;4986215;28;20218;-81
2021/12/22 06:52:58;;;;;;;7.40;5.17;;;;;;;-4.68;85.85;102138.69;4986053;28;20256;-81
2021/12/22 06:55:26;;;;;;;7.53;5.60;;;;;;;-4.71;85.69;102130.84;4987773;28;20209;-81
2021/12/22 06:57:52;;;;;;;7.30;6.20;;;;;;;-4.66;85.73;102119.34;4990953;28;20218;-81
2021/12/22 07:00:19;;;;;;;7.47;6.50;;;;;;;-4.67;85.98;102124.31;4988909;28;20284;-81
2021/12/22 07:02:45;;;;;;;11.97;10.90;;;;;;;-4.59;85.43;102126.59;4987563;28;20293;-81
2021/12/22 07:05:13;;;;;;;8.57;7.70;;;;;;;-4.65;85.88;102107.47;4987299;28;20249;-81
2021/12/22 07:07:40;;;;;;;7.97;6.70;;;;;;;-4.59;85.71;102113.88;4984886;28;20203;-81
2021/12/22 07:10:10;;;;;;;7.30;6.60;;;;;;;-4.67;85.50;102111.59;4988081;28;20283;-80
2021/12/22 07:12:40;;;;;;;7.93;5.77;;;;;;;-4.54;85.77;102124.38;4988752;28;20279;-81
2021/12/22 07:15:09;;;;;;;7.33;5.87;;;;;;;-4.52;85.27;102121.94;4987798;28;20623;-81
2021/12/22 07:17:37;;;;;;;7.43;6.20;;;;;;;-4.61;85.82;102125.63;4986846;28;20199;-81
2021/12/22 07:20:05;;;;;;;7.37;5.60;;;;;;;-4.66;85.06;102121.88;4988768;28;20902;-81
2021/12/22 07:22:31;;;;;;;7.83;5.93;;;;;;;-4.63;85.76;102121.19;4989260;28;20220;-81
2021/12/22 07:24:58;;;;;;;7.23;6.37;;;;;;;-4.62;85.87;102123.88;4984966;28;20199;-81
2021/12/22 07:27:24;;;;;;;6.73;5.33;;;;;;;-4.65;85.15;102125.31;4990219;28;20269;-81
2021/12/22 07:29:52;;;;;;;6.67;5.97;;;;;;;-4.68;85.30;102125.09;4989060;28;20257;-81
2021/12/22 07:32:19;;;;;;;10.27;5.53;;;;;;;-4.66;86.01;102118.44;4984120;28;20218;-80
2021/12/22 07:34:51;;;;;;;6.17;5.57;;;;;;;-4.60;85.75;102117.22;4999670;28;20200;-80
2021/12/22 07:37:27;;;;;;;6.20;5.57;;;;;;;-4.60;85.87;102112.13;5000466;28;20212;-80
2021/12/22 07:39:54;;;;;;;7.60;6.10;;;;;;;-4.66;85.84;102110.78;5004330;28;20208;-84
2021/12/22 07:42:20;;;;;;;6.77;6.17;;;;;;;-4.61;85.84;102110.34;5005134;28;20207;-80
2021/12/22 07:44:47;;;;;;;8.53;6.33;;;;;;;-4.61;85.95;102107.78;5010139;28;20200;-80
2021/12/22 07:47:14;;;;;;;7.13;5.80;;;;;;;-4.52;86.19;102104.09;5001661;28;20214;-80
2021/12/22 07:49:42;;;;;;;8.60;6.63;;;;;;;-4.55;85.78;102122.63;4997828;28;20204;-81
2021/12/22 07:52:09;;;;;;;6.90;5.73;;;;;;;-4.53;85.74;102126.16;4990488;28;20235;-79
2021/12/22 07:54:35;;;;;;;6.37;5.70;;;;;;;-4.51;84.98;102128.81;4995378;28;20219;-81
2021/12/22 07:57:01;;;;;;;7.90;5.07;;;;;;;-4.60;85.21;102129.94;4998577;28;20187;-81
2021/12/22 07:59:28;;;;;;;7.97;6.47;;;;;;;-4.52;85.68;102116.84;4998469;28;20210;-81
2021/12/22 08:01:56;;;;;;;6.17;5.43;;;;;;;-4.60;86.23;102107.03;4998309;28;20255;-81
2021/12/22 08:04:24;;;;;;;6.77;6.13;;;;;;;-4.54;86.50;102103.09;4998765;28;20209;-82
2021/12/22 08:06:51;;;;;;;7.23;5.23;;;;;;;-4.52;86.61;102089.72;4998336;28;20215;-81
2021/12/22 08:09:18;;;;;;;7.20;6.13;;;;;;;-4.45;86.43;102096.97;4997564;28;20223;-81
2021/12/22 08:11:44;;;;;;;6.87;6.17;;;;;;;-4.37;86.03;102096.63;4990981;28;20242;-80
2021/12/22 08:14:11;;;;;;;9.13;6.33;;;;;;;-4.41;86.24;102095.53;4985049;28;20211;-80
2021/12/22 08:16:38;;;;;;;8.33;6.57;;;;;;;-4.39;86.50;102087.22;4984636;28;20210;-80
2021/12/22 08:19:04;;;;;;;8.20;6.33;;;;;;;-4.40;86.64;102082.91;4984456;28;20219;-80
2021/12/22 08:21:32;;;;;;;6.90;6.20;;;;;;;-4.40;86.59;102080.34;4986688;28;20254;-80
2021/12/22 08:23:58;;;;;;;6.83;6.03;;;;;;;-4.35;86.93;102079.78;4985136;28;20255;-80
2021/12/22 08:26:24;;;;;;;6.57;5.67;;;;;;;-4.29;86.96;102067.44;4984859;28;20286;-79
2021/12/22 08:28:51;;;;;;;6.33;5.57;;;;;;;-4.24;86.98;102066.06;4986058;28;20206;-79
2021/12/22 08:31:17;;;;;;;8.57;6.27;;;;;;;-4.17;87.48;102063.16;4986523;28;20239;-80
2021/12/22 08:33:46;;;;;;;6.50;5.50;;;;;;;-4.11;87.01;102058.47;4986203;28;20448;-80
2021/12/22 08:39:02;;;;;;;7.53;5.90;;;;;;;-4.02;87.41;102054.00;4987458;28;20653;-80
2021/12/22 08:41:31;;;;;;;7.43;6.20;;;;;;;-3.95;87.84;102045.06;4986690;28;20235;-79
2021/12/22 08:44:01;;;;;;;10.53;6.30;;;;;;;-4.00;88.94;102020.94;4987066;28;20243;-80
2021/12/22 08:46:28;;;;;;;7.27;6.03;;;;;;;-3.91;89.53;101997.69;4984073;28;20211;-80
2021/12/22 08:48:55;;;;;;;7.63;5.80;;;;;;;-3.82;89.19;101988.09;4983895;28;20632;-80
2021/12/22 08:51:22;;;;;;;6.50;5.90;;;;;;;-3.77;89.62;101975.63;4985815;28;20262;-80
2021/12/22 08:53:49;;;;;;;6.47;5.70;;;;;;;-3.70;89.79;101972.69;4985628;28;20210;-80
2021/12/22 08:56:16;;;;;;;7.80;6.27;;;;;;;-3.55;89.69;101965.97;4984358;28;20215;-80
2021/12/22 08:58:43;;;;;;;8.57;7.73;;;;;;;-3.49;90.00;101976.59;4980653;28;20207;-77
2021/12/22 09:01:09;;;;;;;9.40;7.13;;;;;;;-3.44;89.67;101984.53;4980767;28;20231;-80
2021/12/22 09:03:36;;;;;;;7.43;6.57;;;;;;;-3.30;89.83;101982.84;4984582;28;20249;-80
2021/12/22 09:06:03;;;;;;;11.17;8.00;;;;;;;-3.15;90.55;101957.34;4985742;28;20242;-79
2021/12/22 09:08:29;;;;;;;9.70;7.67;;;;;;;-3.01;92.67;101920.78;4990007;28;20214;-79
2021/12/22 09:10:56;;;;;;;9.30;7.87;;;;;;;-3.04;91.46;101923.16;4979453;28;20253;-77
2021/12/22 09:13:23;;;;;;;13.33;10.00;;;;;;;-2.93;91.87;101917.03;4976817;28;20242;-78
2021/12/22 09:15:50;;;;;;;10.70;9.53;;;;;;;-2.87;91.80;101924.16;4976600;28;20289;-77
2021/12/22 09:18:18;;;;;;;9.20;8.27;;;;;;;-2.60;94.17;101845.66;4982764;28;20212;-80
2021/12/22 09:20:46;;;;;;;9.83;8.93;;;;;;;-2.49;94.94;101816.47;4986186;28;20215;-79
2021/12/22 09:23:12;;;;;;;11.73;9.57;;;;;;;-2.51;93.85;101832.53;4983918;28;20206;-77
2021/12/22 09:25:39;;;;;;;11.37;9.77;;;;;;;-2.58;93.13;101851.72;4976316;28;20269;-77
2021/12/22 09:28:06;;;;;;;11.37;9.57;;;;;;;-2.47;93.90;101848.13;4975863;28;20215;-77
2021/12/22 09:30:38;;;;;;;10.70;9.60;;;;;;;-2.46;93.10;101857.56;4975198;28;20269;-76
2021/12/22 09:33:04;;;;;;;11.77;10.57;;;;;;;-2.63;91.48;101909.41;4975487;28;20258;-76
2021/12/22 09:35:31;;;;;;;10.43;9.33;;;;;;;-2.63;90.15;101934.97;4975580;28;20211;-80
2021/12/22 09:37:58;;;;;;;11.73;10.53;;;;;;;-2.58;90.44;101950.56;4975910;28;20258;-77
2021/12/22 09:40:24;;;;;;;10.77;9.53;;;;;;;-2.54;90.03;101957.59;4975440;28;20211;-77
2021/12/22 09:42:51;;;;;;;13.83;10.70;;;;;;;-2.51;89.76;101968.91;4974774;28;20313;-77
2021/12/22 09:45:19;;;;;;;17.57;10.60;;;;;;;-2.60;89.54;101979.47;4975267;28;20218;-77
2021/12/22 09:48:04;;;;;;;12.20;10.90;;;;;;;-2.54;89.26;101981.47;4976799;28;20215;-78
2021/12/22 09:50:44;;;;;;;14.73;11.60;;;;;;;-2.55;89.28;101983.97;4978865;28;20318;-78
2021/12/22 09:53:10;;;;;;;15.73;10.97;;;;;;;-2.51;89.23;101984.25;4978490;28;20671;-77
2021/12/22 09:55:37;;;;;;;14.07;11.67;;;;;;;-2.46;89.07;101982.84;4977091;28;20237;-78
2021/12/22 09:58:04;;;;;;;11.87;10.67;;;;;;;-2.38;88.88;101990.06;4976363;28;20212;-77
2021/12/22 10:00:33;;;;;;;11.53;10.37;;;;;;;-2.34;88.75;102000.56;4976577;28;20199;-78
2021/12/22 10:03:01;;;;;;;11.43;10.13;;;;;;;-2.32;88.88;102004.13;4976090;28;20674;-77
2021/12/22 10:05:27;;;;;;;12.07;10.87;;;;;;;-2.34;88.74;102002.22;4976046;28;20216;-77
2021/12/22 10:08:08;;;;;;;13.70;10.57;;;;;;;-2.45;88.86;101994.81;4978297;28;20238;-77
2021/12/22 10:10:36;;;;;;;13.07;10.87;;;;;;;-2.39;88.78;101994.31;4980873;28;20239;-76
2021/12/22 10:13:07;;;;;;;11.33;10.03;;;;;;;-2.47;88.73;101986.19;4983814;28;20215;-78
2021/12/22 10:15:35;;;;;;;12.30;10.67;;;;;;;-2.43;88.87;101987.25;4982660;28;20271;-78
2021/12/22 10:18:10;;;;;;;16.07;12.27;;;;;;;-2.34;88.82;101987.75;4983885;28;20352;-77
2021/12/22 10:20:37;;;;;;;14.93;11.67;;;;;;;-2.34;89.32;101984.34;4982541;28;20657;-78
2021/12/22 10:23:19;;;;;;;14.73;13.07;;;;;;;-2.31;89.49;101979.41;4983788;28;20209;-78
2021/12/22 10:25:52;;;;;;;13.77;12.23;;;;;;;-2.24;89.58;101974.75;4985353;28;20600;-78
2021/12/22 10:28:19;;;;;;;14.23;11.93;;;;;;;-2.13;89.29;101967.69;4982200;28;20586;-78
2021/12/22 10:30:46;;;;;;;13.60;12.20;;;;;;;-2.08;89.19;101976.50;4983529;28;20239;-77
2021/12/22 10:33:17;;;;;;;14.73;11.60;;;;;;;-2.05;89.11;101986.03;4985153;28;20232;-78
2021/12/22 10:35:46;;;;;;;12.57;11.00;;;;;;;-2.08;88.99;101976.50;4986903;28;20234;-78
2021/12/22 10:38:15;;;;;;;13.87;10.97;;;;;;;-2.09;89.39;101971.31;4982734;28;20226;-79
2021/12/22 10:40:57;;;;;;;12.40;11.10;;;;;;;-2.08;89.40;101960.25;4983751;28;20198;-78
2021/12/22 10:43:26;;;;;;;11.40;10.20;;;;;;;-2.02;89.75;101953.84;4983236;28;20726;-80
2021/12/22 10:45:55;;;;;;;12.33;11.03;;;;;;;-1.96;90.07;101948.19;4981632;28;20247;-77
2021/12/22 10:51:19;;;;;;;12.40;10.77;;;;;;;-1.93;90.48;101935.53;4981351;28;20258;-78
2021/12/22 10:53:48;;;;;;;13.77;11.07;;;;;;;-1.91;91.68;101910.03;4982857;28;20298;-77
2021/12/22 10:56:27;;;;;;;15.07;12.13;;;;;;;-1.89;92.80;101858.16;4295202;28;10000791;-77
2021/12/22 10:59:03;;;;;;;14.53;11.80;;;;;;;-1.76;92.77;101840.88;4979007;28;20251;-77
2021/12/22 11:05:04;;;;;;;11.90;10.37;;;;;;;-1.52;91.96;101849.03;4964205;28;20646;-78
2021/12/22 11:07:40;;;;;;;12.53;11.23;;;;;;;-1.42;91.84;101864.06;4979982;28;20200;-77
2021/12/22 11:10:25;;;;;;;12.80;11.07;;;;;;;-1.29;91.20;101866.47;4978898;28;20219;-77
2021/12/22 11:13:16;;;;;;;12.90;10.83;;;;;;;-1.25;91.54;101870.97;4976387;28;20707;-77
2021/12/22 11:15:44;;;;;;;14.50;11.73;;;;;;;-1.14;91.21;101874.06;4979675;28;20226;-77
2021/12/22 11:18:25;;;;;;;13.30;11.30;;;;;;;-1.07;90.84;101876.16;4976623;28;20207;-77
2021/12/22 11:27:14;;;;;;;13.07;11.77;;;;;;;-1.07;90.97;101885.50;5147338;27;20215;-79
2021/12/22 11:30:32;;;;;;;14.63;12.63;;;;;;;-0.95;90.49;101890.38;5166189;27;20223;-78
2021/12/22 11:32:59;;;;;;;13.63;11.43;;;;;;;-0.82;90.73;101888.53;5174492;27;20715;-79
2021/12/22 11:35:30;;;;;;;13.07;11.07;;;;;;;-0.72;89.94;101897.56;5170052;27;20216;-78
2021/12/22 11:40:55;;;;;;;15.70;12.23;;;;;;;-0.65;89.87;101901.34;5165408;27;20202;-78
2021/12/22 11:43:48;;;;;;;12.63;10.70;;;;;;;-0.64;90.03;101918.47;5170641;27;20289;-78
2021/12/22 11:46:15;;;;;;;13.23;11.63;;;;;;;-0.68;90.15;101911.41;5168008;27;20211;-79
2021/12/22 11:49:24;;;;;;;14.73;11.37;;;;;;;-0.57;89.89;101905.16;5169577;27;20200;-79